Time;durP1;ratioP1;P1;durP2;ratioP2;P2;SDS_P1;SDS_P2;PMS_P1;PMS_P2;Temp;Humidity;BMP_temperature;BMP_pressure;BME280_temperature;BME280_humidity;BME280_pressure;Samples;Min_cycle;Max_cycle;Signal;HPM_P1;HPM_P2
2021/10/17 00:02:19;;;;;;;27.20;12.50;;;;;;;7.54;75.71;100330.31;226769;1198;141162;-67
2021/10/17 00:07:24;;;;;;;18.20;10.90;;;;;;;7.55;75.36;100331.34;227183;1197;140781;-66
2021/10/17 00:12:31;;;;;;;;;;;;;;;7.54;75.43;100337.05;226771;1198;140243;-67
2021/10/17 00:17:40;;;;;;;23.30;9.90;;;;;;;7.48;75.75;100335.88;226973;1198;125659;-66
2021/10/17 00:22:45;;;;;;;19.40;11.30;;;;;;;7.53;75.93;100339.00;226661;1198;139873;-66
2021/10/17 00:27:51;;;;;;;39.20;18.80;;;;;;;7.58;76.02;100338.70;227080;1198;140095;-66
2021/10/17 00:32:55;;;;;;;157.50;85.50;;;;;;;7.56;75.67;100334.90;227972;1197;140824;-66
2021/10/17 00:38:02;;;;;;;24.80;13.20;;;;;;;7.56;75.93;100333.95;226486;1198;139730;-66
2021/10/17 00:43:07;;;;;;;26.50;13.60;;;;;;;7.55;75.91;100335.66;226688;1197;139755;-66
2021/10/17 00:48:13;;;;;;;25.70;12.30;;;;;;;7.61;76.03;100335.15;228312;1197;140414;-68
2021/10/17 00:53:21;;;;;;;15.30;10.60;;;;;;;7.66;76.40;100332.81;227616;1198;141827;-66
2021/10/17 00:58:26;;;;;;;22.20;11.10;;;;;;;7.67;76.16;100330.48;228183;1198;140064;-68
2021/10/17 01:03:31;;;;;;;23.80;12.50;;;;;;;7.69;75.92;100332.50;227702;1197;140790;-68
2021/10/17 01:08:45;;;;;;;20.10;11.60;;;;;;;7.67;75.68;100326.37;227192;1198;140149;-68
2021/10/17 01:13:50;;;;;;;18.10;9.40;;;;;;;7.61;75.98;100325.30;229241;1197;139946;-67
2021/10/17 01:18:56;;;;;;;21.10;11.10;;;;;;;7.64;75.94;100317.42;229575;1197;141933;-67
2021/10/17 01:24:00;;;;;;;24.90;11.10;;;;;;;7.70;75.79;100312.41;229559;1197;140293;-68
2021/10/17 01:29:05;;;;;;;11.90;7.90;;;;;;;7.73;76.05;100305.88;229571;1197;140826;-71
2021/10/17 01:34:09;;;;;;;17.40;8.00;;;;;;;7.68;75.97;100298.60;228577;1197;139412;-68
2021/10/17 01:39:16;;;;;;;17.60;9.60;;;;;;;7.63;75.86;100294.33;226413;1198;140617;-67
2021/10/17 01:44:28;;;;;;;24.60;10.30;;;;;;;7.63;76.05;100291.67;227220;1198;141232;-68
2021/10/17 01:49:35;;;;;;;20.70;11.90;;;;;;;7.62;75.98;100288.70;226674;1197;142605;-67
2021/10/17 01:54:39;;;;;;;20.10;9.90;;;;;;;7.64;76.55;100281.05;227306;1197;141874;-67
2021/10/17 01:59:44;;;;;;;20.60;10.30;;;;;;;7.63;76.14;100283.96;228222;1197;140509;-67
2021/10/17 02:04:49;;;;;;;17.70;10.60;;;;;;;7.65;76.34;100279.70;226499;1197;141163;-67
2021/10/17 02:09:54;;;;;;;22.80;12.00;;;;;;;7.59;75.98;100280.58;226926;1197;140985;-66
2021/10/17 02:14:59;;;;;;;25.20;11.50;;;;;;;7.56;76.61;100275.84;228160;1197;140355;-68
2021/10/17 02:20:05;;;;;;;18.70;10.40;;;;;;;7.62;76.68;100270.98;227759;1197;140743;-69
2021/10/17 02:25:10;;;;;;;15.20;8.50;;;;;;;7.64;76.43;100275.38;227575;1197;142340;-67
2021/10/17 02:30:14;;;;;;;20.40;10.00;;;;;;;7.60;76.45;100272.98;227178;1197;140935;-67
2021/10/17 02:35:20;;;;;;;15.30;8.40;;;;;;;7.56;76.72;100270.98;227347;1198;140867;-67
2021/10/17 02:40:24;;;;;;;22.10;11.50;;;;;;;7.60;76.56;100269.06;227528;1198;141248;-68
2021/10/17 02:45:28;;;;;;;19.10;9.60;;;;;;;7.59;76.73;100257.39;227829;1197;140842;-67
2021/10/17 02:50:33;;;;;;;16.30;9.00;;;;;;;7.52;76.57;100257.74;227135;1198;139213;-66
2021/10/17 02:55:39;;;;;;;20.90;9.70;;;;;;;7.52;76.56;100260.07;228477;1197;139555;-69
2021/10/17 03:00:44;;;;;;;18.90;9.80;;;;;;;7.57;76.85;100257.05;227038;1198;140498;-68
2021/10/17 03:05:49;;;;;;;21.20;10.20;;;;;;;7.62;76.75;100257.48;226314;1197;139726;-66
2021/10/17 03:10:53;;;;;;;17.20;9.90;;;;;;;7.64;76.94;100257.02;228504;1197;141089;-67
2021/10/17 03:16:11;;;;;;;;;;;;;;;;;;;;;
2021/10/17 03:21:17;;;;;;;15.00;10.20;;;;;;;7.63;76.87;100264.23;228640;1198;141220;-67
2021/10/17 03:26:33;;;;;;;;;;;;;;;;;;;;;
2021/10/17 03:31:50;;;;;;;17.20;10.40;;;;;;;7.70;77.18;100265.09;227763;1198;139358;-66
2021/10/17 03:36:55;;;;;;;17.80;11.00;;;;;;;7.67;76.69;100264.07;229232;1198;140460;-66
2021/10/17 03:42:00;;;;;;;21.30;12.70;;;;;;;7.67;76.83;100260.64;229043;1197;140028;-67
2021/10/17 03:47:07;;;;;;;22.80;10.40;;;;;;;7.65;76.65;100257.14;228657;1198;139975;-67
2021/10/17 03:52:12;;;;;;;17.40;10.10;;;;;;;7.63;76.94;100258.73;228554;1197;234239;-67
2021/10/17 03:57:35;;;;;;;14.60;9.60;;;;;;;7.63;76.87;100265.88;228539;1198;140716;-66
2021/10/17 04:02:40;;;;;;;17.80;10.50;;;;;;;7.68;76.90;100265.91;227609;1198;140209;-66
2021/10/17 04:07:45;;;;;;;22.40;10.50;;;;;;;7.69;77.01;100262.16;227317;1198;140241;-66
2021/10/17 04:13:08;;;;;;;;;;;;;;;;;;;;;
2021/10/17 04:18:13;;;;;;;14.50;8.90;;;;;;;7.56;77.10;100256.48;227273;1198;139704;-66
2021/10/17 04:23:22;;;;;;;17.80;10.40;;;;;;;7.54;76.83;100255.42;227114;1198;140809;-66
2021/10/17 04:28:42;;;;;;;14.80;9.80;;;;;;;7.55;77.42;100256.28;227940;1198;139476;-66
2021/10/17 04:33:46;;;;;;;14.70;10.20;;;;;;;7.55;76.89;100254.52;227946;1198;140202;-66
2021/10/17 04:38:54;;;;;;;16.00;10.70;;;;;;;7.55;77.19;100252.93;227962;1198;140362;-67
2021/10/17 04:44:00;;;;;;;20.80;8.10;;;;;;;7.55;77.35;100257.88;227450;1198;140301;-66
2021/10/17 04:49:04;;;;;;;15.60;9.30;;;;;;;7.58;77.07;100259.48;228580;1198;140657;-67
2021/10/17 04:54:09;;;;;;;20.90;9.90;;;;;;;7.68;77.37;100262.00;226295;1198;139835;-66
2021/10/17 04:59:20;;;;;;;19.40;9.70;;;;;;;7.76;77.19;100259.43;227737;1198;141903;-66
2021/10/17 05:04:25;;;;;;;9.80;6.50;;;;;;;7.76;77.09;100252.94;228265;1198;140366;-67
2021/10/17 05:09:39;;;;;;;11.60;7.20;;;;;;;7.68;76.59;100246.23;227511;1198;140324;-66
2021/10/17 05:14:43;;;;;;;14.70;8.10;;;;;;;7.66;76.54;100246.15;228534;1198;140391;-66
2021/10/17 05:19:47;;;;;;;13.20;9.20;;;;;;;7.64;76.60;100247.99;229091;1198;139895;-67
2021/10/17 05:24:51;;;;;;;15.80;8.70;;;;;;;7.63;76.68;100245.36;229398;1198;139613;-67
2021/10/17 05:29:55;;;;;;;13.50;7.20;;;;;;;7.67;76.69;100251.54;227968;1198;140819;-66
2021/10/17 05:34:59;;;;;;;12.10;9.10;;;;;;;7.75;76.51;100259.14;229324;1197;141495;-67
2021/10/17 05:40:05;;;;;;;13.90;9.30;;;;;;;7.72;76.32;100261.91;228730;1198;140075;-66
2021/10/17 05:45:09;;;;;;;18.50;9.00;;;;;;;7.69;76.72;100259.70;228927;1198;140944;-66
2021/10/17 05:50:13;;;;;;;15.10;7.50;;;;;;;7.73;76.52;100262.03;228836;1198;140016;-66
2021/10/17 05:55:18;;;;;;;12.00;6.90;;;;;;;7.77;76.14;100264.00;226866;1198;139657;-67
2021/10/17 06:00:22;;;;;;;15.10;8.80;;;;;;;7.76;76.28;100263.76;228536;1197;139590;-66
2021/10/17 06:05:28;;;;;;;14.00;7.60;;;;;;;7.77;76.51;100261.64;228434;1198;139862;-66
2021/10/17 06:10:32;;;;;;;17.70;8.90;;;;;;;7.86;76.29;100260.55;226982;1199;141269;-66
2021/10/17 06:15:37;;;;;;;12.00;7.10;;;;;;;7.90;76.27;100267.09;227189;1198;140887;-66
2021/10/17 06:20:42;;;;;;;17.30;8.20;;;;;;;7.94;76.49;100263.00;227900;1198;140947;-66
2021/10/17 06:25:46;;;;;;;16.30;9.50;;;;;;;7.99;76.76;100267.27;226709;1199;140782;-66
2021/10/17 06:31:02;;;;;;;;;;;;;;;;;;;;;
2021/10/17 06:36:09;;;;;;;14.40;9.90;;;;;;;8.15;76.52;100268.09;227046;1197;141332;-66
2021/10/17 06:41:15;;;;;;;18.80;10.80;;;;;;;8.19;76.58;100276.05;226579;1200;141940;-66
2021/10/17 06:46:19;;;;;;;10.90;8.40;;;;;;;8.22;76.68;100285.86;227626;1198;141322;-66
2021/10/17 06:51:31;;;;;;;12.00;7.60;;;;;;;8.23;76.32;100286.64;226605;1198;140398;-66
2021/10/17 06:56:47;;;;;;;17.00;9.50;;;;;;;8.31;76.55;100289.23;227438;1198;140707;-65
2021/10/17 07:01:52;;;;;;;21.90;10.80;;;;;;;8.40;76.56;100283.36;228057;1198;140776;-66
2021/10/17 07:06:57;;;;;;;15.50;9.30;;;;;;;8.41;76.45;100287.20;228205;1198;140171;-68
2021/10/17 07:12:02;;;;;;;14.30;10.40;;;;;;;8.40;76.44;100289.45;227463;1198;141216;-66
2021/10/17 07:17:39;;;;;;;18.20;10.30;;;;;;;8.49;76.41;100295.83;227432;1198;140353;-66
2021/10/17 07:23:07;;;;;;;12.30;8.80;;;;;;;8.57;76.54;100296.80;227798;1198;140771;-67
2021/10/17 07:28:14;;;;;;;16.20;10.10;;;;;;;8.58;76.23;100299.67;229216;1198;140664;-69
2021/10/17 07:33:18;;;;;;;18.70;9.10;;;;;;;8.64;76.43;100304.03;229153;1197;140940;-69
2021/10/17 07:38:24;;;;;;;19.30;8.70;;;;;;;8.72;76.32;100305.48;228816;1198;142058;-66
2021/10/17 07:43:28;;;;;;;11.30;6.50;;;;;;;8.79;76.04;100306.51;229160;1198;163058;-67
2021/10/17 07:48:36;;;;;;;20.40;9.60;;;;;;;8.83;75.83;100306.21;228259;1198;141171;-65
2021/10/17 07:54:08;;;;;;;23.40;11.70;;;;;;;8.92;75.82;100308.15;227552;1190;141263;-66
2021/10/17 07:59:21;;;;;;;23.90;11.70;;;;;;;8.97;75.99;100306.39;228384;1198;140688;-67
2021/10/17 08:04:25;;;;;;;14.20;9.10;;;;;;;9.00;75.85;100312.14;228268;1198;140500;-67
2021/10/17 08:09:30;;;;;;;17.60;9.20;;;;;;;9.01;75.63;100313.05;227840;1197;140045;-66
2021/10/17 08:14:37;;;;;;;12.30;8.20;;;;;;;9.07;75.44;100316.63;226997;1198;140109;-66
2021/10/17 08:19:54;;;;;;;13.80;9.40;;;;;;;9.08;75.34;100318.83;227340;1198;139565;-66
2021/10/17 08:25:01;;;;;;;11.10;8.90;;;;;;;9.12;75.48;100316.33;227178;1198;139436;-66
2021/10/17 08:30:09;;;;;;;20.10;8.40;;;;;;;9.17;75.27;100314.67;227566;1198;140361;-66
2021/10/17 08:35:17;;;;;;;;;;;;;;;9.25;74.90;100315.85;227458;1198;139952;-67
2021/10/17 08:40:39;;;;;;;13.30;8.40;;;;;;;9.24;74.90;100317.00;228157;1198;125504;-67
2021/10/17 08:45:46;;;;;;;13.40;9.10;;;;;;;9.27;74.56;100319.36;227226;1198;140352;-67
2021/10/17 08:50:55;;;;;;;22.60;10.20;;;;;;;9.35;74.58;100319.65;227118;1198;140647;-68
2021/10/17 08:56:00;;;;;;;16.60;9.20;;;;;;;9.50;74.63;100316.58;227525;1198;143444;-66
2021/10/17 09:01:16;;;;;;;16.40;9.10;;;;;;;9.58;74.41;100315.59;227886;1199;139727;-67
2021/10/17 09:06:33;;;;;;;15.30;10.00;;;;;;;9.64;74.21;100314.54;228371;1198;139221;-67
2021/10/17 09:11:49;;;;;;;16.40;8.60;;;;;;;9.71;73.98;100315.73;227596;1190;141076;-66
2021/10/17 09:16:57;;;;;;;20.10;10.10;;;;;;;9.84;73.80;100314.77;229105;1198;140989;-68
2021/10/17 09:22:09;;;;;;;12.80;9.10;;;;;;;9.93;73.48;100314.17;226938;1198;142482;-66
2021/10/17 09:27:25;;;;;;;19.50;8.50;;;;;;;10.01;73.22;100310.55;228755;1198;152192;-67
2021/10/17 09:32:33;;;;;;;14.80;7.90;;;;;;;10.12;73.14;100306.11;229229;1198;142034;-70
2021/10/17 09:37:40;;;;;;;11.10;8.20;;;;;;;10.27;72.79;100308.97;229354;1198;140682;-69
2021/10/17 09:43:10;;;;;;;13.10;8.70;;;;;;;10.42;72.88;100307.02;229484;1198;141098;-68
2021/10/17 09:48:45;;;;;;;7.80;6.80;;;;;;;10.54;72.39;100307.45;228196;1198;142826;-68
2021/10/17 09:53:51;;;;;;;17.10;7.10;;;;;;;10.63;71.83;100307.57;228807;1198;140948;-68
2021/10/17 09:59:16;;;;;;;15.90;6.80;;;;;;;10.70;71.43;100300.84;226983;1198;142534;-67
2021/10/17 10:04:27;;;;;;;8.90;6.60;;;;;;;10.78;71.14;100296.44;228406;1197;140669;-66
2021/10/17 10:09:40;;;;;;;7.90;6.30;;;;;;;10.80;70.97;100293.98;227518;1198;141817;-66
2021/10/17 10:15:03;;;;;;;7.90;5.50;;;;;;;10.86;70.76;100295.16;227172;1198;139724;-67
2021/10/17 10:20:10;;;;;;;12.70;6.80;;;;;;;10.95;70.34;100291.49;227424;1198;142378;-69
2021/10/17 10:25:41;;;;;;;8.40;6.40;;;;;;;11.08;70.42;100290.05;227990;1198;140253;-68
2021/10/17 10:30:51;;;;;;;13.60;5.20;;;;;;;11.21;70.12;100285.80;226834;1198;139933;-67
2021/10/17 10:37:10;;;;;;;;;;;;;;;;;;;;;
2021/10/17 10:42:54;;;;;;;8.60;5.80;;;;;;;11.48;69.15;100279.27;227246;1198;139448;-68
2021/10/17 10:48:16;;;;;;;12.40;6.60;;;;;;;11.63;68.97;100270.98;227210;1198;139427;-66
2021/10/17 10:53:54;;;;;;;5.50;4.50;;;;;;;11.68;68.31;100268.35;226452;1198;139594;-67
2021/10/17 10:58:57;;;;;;;7.70;4.80;;;;;;;11.64;67.76;100267.97;227614;1198;139397;-68
2021/10/17 11:04:04;;;;;;;5.80;5.20;;;;;;;11.64;67.66;100264.29;228053;1198;140404;-68
2021/10/17 11:09:22;;;;;;;8.90;5.50;;;;;;;11.68;67.40;100266.05;227873;1198;139108;-68
2021/10/17 11:14:33;;;;;;;5.40;4.90;;;;;;;11.72;67.24;100268.08;227893;1198;140754;-67
2021/10/17 11:19:38;;;;;;;7.40;4.70;;;;;;;11.73;66.51;100261.46;229267;1198;139512;-67
2021/10/17 11:24:44;;;;;;;11.80;5.40;;;;;;;11.74;66.07;100260.21;227136;1198;140995;-67
2021/10/17 11:29:50;;;;;;;8.40;5.90;;;;;;;11.76;66.02;100259.30;228896;1198;139753;-67
2021/10/17 11:35:02;;;;;;;11.90;5.20;;;;;;;11.79;66.04;100258.98;229217;1198;139937;-68
2021/10/17 11:40:10;;;;;;;6.40;4.70;;;;;;;11.80;65.51;100248.11;228543;1198;139748;-67
2021/10/17 11:45:52;;;;;;;6.70;4.40;;;;;;;11.79;65.04;100242.91;228017;1198;140882;-66
2021/10/17 11:51:09;;;;;;;4.80;3.60;;;;;;;11.75;64.80;100239.13;228601;1198;140616;-66
2021/10/17 11:56:21;;;;;;;8.30;4.40;;;;;;;11.72;64.59;100241.05;227953;1198;140450;-67
2021/10/17 12:01:26;;;;;;;7.40;5.20;;;;;;;11.67;64.26;100243.43;228461;1198;140991;-67
2021/10/17 12:06:36;;;;;;;9.50;4.60;;;;;;;11.62;64.03;100239.31;227933;1198;140627;-67
2021/10/17 12:11:56;;;;;;;4.50;4.10;;;;;;;11.59;63.87;100234.21;227429;1198;139287;-66
2021/10/17 12:17:14;;;;;;;;;;;;;;;;;;;;;
2021/10/17 12:22:29;;;;;;;7.00;4.20;;;;;;;11.55;63.45;100228.39;227234;1198;140708;-67
2021/10/17 12:27:37;;;;;;;5.80;4.40;;;;;;;11.44;63.51;100225.17;226469;1198;141817;-67
2021/10/17 12:32:51;;;;;;;5.60;4.30;;;;;;;11.33;63.68;100220.09;227052;1198;140711;-66
2021/10/17 12:38:14;;;;;;;10.30;5.60;;;;;;;11.25;63.81;100215.79;227366;1198;140391;-67
2021/10/17 12:43:34;;;;;;;7.00;4.50;;;;;;;11.20;64.06;100213.52;226534;1198;140825;-67
2021/10/17 12:48:48;;;;;;;11.10;5.90;;;;;;;11.14;63.78;100202.95;227715;1198;139839;-67
2021/10/17 12:54:22;;;;;;;9.90;5.00;;;;;;;11.15;64.06;100200.56;227688;1198;141449;-65
2021/10/17 12:59:29;;;;;;;8.90;6.20;;;;;;;11.13;63.84;100206.54;227357;1198;140043;-68
2021/10/17 13:04:57;;;;;;;9.30;4.80;;;;;;;11.06;63.92;100207.20;228851;1198;140864;-68
2021/10/17 13:10:09;;;;;;;6.80;4.50;;;;;;;11.01;64.05;100204.24;226397;1198;140862;-66
2021/10/17 13:15:17;;;;;;;17.50;6.30;;;;;;;10.96;64.09;100207.11;228047;1198;141352;-70
2021/10/17 13:20:25;;;;;;;9.30;5.60;;;;;;;10.93;64.16;100207.47;227464;1198;141295;-66
2021/10/17 13:25:30;;;;;;;;;;;;;;;10.92;64.64;100204.16;227409;1198;141397;-67
2021/10/17 13:30:35;;;;;;;12.00;6.30;;;;;;;10.80;64.47;100205.87;230025;1198;128003;-67
2021/10/17 13:35:39;;;;;;;8.60;6.20;;;;;;;10.77;64.24;100200.82;229457;1198;152267;-67
2021/10/17 13:40:43;;;;;;;11.80;7.00;;;;;;;10.79;64.64;100200.45;229502;1198;140103;-67
2021/10/17 13:45:49;;;;;;;12.50;6.70;;;;;;;10.77;64.81;100189.08;229637;1197;141595;-67
2021/10/17 13:51:04;;;;;;;10.60;6.90;;;;;;;10.75;64.93;100191.11;228812;1197;140570;-66
2021/10/17 13:56:11;;;;;;;10.70;6.20;;;;;;;10.73;65.05;100185.31;227455;1198;140571;-67
2021/10/17 14:01:18;;;;;;;9.40;6.40;;;;;;;10.74;64.96;100182.71;227131;1198;139931;-67
2021/10/17 14:06:23;;;;;;;9.80;7.60;;;;;;;10.80;65.23;100178.66;226908;1197;139070;-67
2021/10/17 14:11:27;;;;;;;14.70;7.20;;;;;;;10.89;65.82;100174.21;227770;1198;139711;-66
2021/10/17 14:16:32;;;;;;;10.50;6.90;;;;;;;10.93;65.63;100172.68;227653;1198;139470;-67
2021/10/17 14:21:37;;;;;;;13.20;8.60;;;;;;;10.97;65.32;100173.97;227628;1197;140505;-68
2021/10/17 14:26:56;;;;;;;10.60;7.30;;;;;;;11.01;65.49;100175.55;227499;1198;140130;-67
2021/10/17 14:32:00;;;;;;;15.90;8.90;;;;;;;10.97;65.38;100172.90;227064;1199;140874;-70
2021/10/17 14:37:05;;;;;;;12.90;7.80;;;;;;;10.84;64.95;100172.66;227544;1198;139495;-68
2021/10/17 14:42:17;;;;;;;13.50;7.10;;;;;;;10.70;65.34;100169.16;226962;1198;141350;-67
2021/10/17 14:47:23;;;;;;;13.50;8.20;;;;;;;10.56;65.25;100163.60;227820;1198;139896;-68
2021/10/17 14:52:31;;;;;;;13.70;7.50;;;;;;;10.52;65.46;100169.84;227508;1198;140719;-66
2021/10/17 14:57:36;;;;;;;13.20;7.90;;;;;;;10.48;65.60;100166.89;227167;1198;140613;-68
2021/10/17 15:02:42;;;;;;;16.60;8.60;;;;;;;10.37;65.49;100163.41;227174;1183;140626;-65
2021/10/17 15:07:46;;;;;;;6.10;4.60;;;;;;;10.27;65.57;100168.54;227422;1198;142257;-67
2021/10/17 15:12:53;;;;;;;9.90;6.60;;;;;;;10.15;65.66;100175.43;227234;1198;140345;-68
2021/10/17 15:18:03;;;;;;;17.40;8.90;;;;;;;10.02;65.81;100181.80;228677;1198;140611;-68
2021/10/17 15:23:06;;;;;;;15.40;8.60;;;;;;;9.98;66.01;100182.13;229045;1198;140541;-70
2021/10/17 15:28:14;;;;;;;28.70;9.00;;;;;;;9.96;66.16;100185.54;229401;1197;140535;-68
2021/10/17 15:33:20;;;;;;;15.50;8.60;;;;;;;9.95;66.54;100184.81;229261;1197;140108;-68
2021/10/17 15:38:26;;;;;;;16.40;8.40;;;;;;;9.96;66.67;100186.70;229038;1197;139567;-68
2021/10/17 15:43:31;;;;;;;13.60;7.80;;;;;;;9.95;66.68;100184.64;229210;1197;139943;-68
2021/10/17 15:48:40;;;;;;;18.00;8.70;;;;;;;9.91;66.61;100194.64;229221;1198;139415;-68
2021/10/17 15:53:45;;;;;;;18.10;8.30;;;;;;;9.90;66.63;100198.34;227777;1198;141574;-68
2021/10/17 15:58:53;;;;;;;17.40;9.20;;;;;;;9.87;66.81;100197.05;227216;1198;141519;-67
2021/10/17 16:04:00;;;;;;;13.30;8.10;;;;;;;9.84;67.14;100199.85;227641;1198;140693;-68
2021/10/17 16:09:17;;;;;;;15.20;8.00;;;;;;;9.77;67.16;100203.25;227740;1198;234687;-67
2021/10/17 16:14:23;;;;;;;14.70;8.20;;;;;;;9.72;67.37;100202.64;227386;1198;140055;-69
2021/10/17 16:19:28;;;;;;;11.00;6.90;;;;;;;9.61;67.15;100204.27;227417;1198;144720;-70
2021/10/17 16:24:37;;;;;;;19.50;8.80;;;;;;;9.56;67.41;100203.90;226722;1198;155385;-68
2021/10/17 16:29:45;;;;;;;23.30;9.90;;;;;;;9.57;67.64;100209.10;227853;1197;139478;-68
2021/10/17 16:34:51;;;;;;;12.70;6.90;;;;;;;9.58;67.92;100210.60;227049;1197;140718;-68
2021/10/17 16:39:56;;;;;;;14.70;8.80;;;;;;;9.54;67.80;100217.67;226973;1198;139823;-66
2021/10/17 16:45:05;;;;;;;11.90;7.60;;;;;;;9.49;67.89;100220.33;226751;1198;141207;-67
2021/10/17 16:50:16;;;;;;;13.40;8.20;;;;;;;9.43;68.04;100224.69;227253;1197;140504;-67
2021/10/17 16:55:27;;;;;;;13.60;7.80;;;;;;;9.39;68.15;100222.79;227873;1198;140028;-67
2021/10/17 17:00:34;;;;;;;10.10;8.00;;;;;;;9.41;68.23;100222.20;227424;1197;141292;-67
2021/10/17 17:05:39;;;;;;;15.50;8.80;;;;;;;9.40;68.24;100214.47;227574;1197;140766;-67
2021/10/17 17:10:47;;;;;;;10.40;8.20;;;;;;;9.35;68.43;100214.17;227406;1198;141330;-67
2021/10/17 17:15:52;;;;;;;12.80;7.10;;;;;;;9.28;68.46;100213.02;228601;1198;140023;-67
2021/10/17 17:20:58;;;;;;;18.60;8.30;;;;;;;9.19;68.49;100205.95;228822;1197;139582;-68
2021/10/17 17:26:04;;;;;;;18.10;9.20;;;;;;;9.21;68.73;100207.79;229359;1197;141505;-69
2021/10/17 17:31:09;;;;;;;15.80;8.60;;;;;;;9.27;68.98;100208.90;229298;1198;140211;-68
2021/10/17 17:36:14;;;;;;;14.40;9.60;;;;;;;9.28;68.83;100205.54;229312;1198;141307;-68
2021/10/17 17:41:20;;;;;;;10.90;7.60;;;;;;;9.24;68.69;100204.08;229411;1197;139217;-68
2021/10/17 17:46:25;;;;;;;18.60;8.80;;;;;;;9.15;68.61;100202.92;229228;1198;139872;-67
2021/10/17 17:51:29;;;;;;;10.10;8.00;;;;;;;9.11;68.74;100206.19;229201;1198;141184;-68
2021/10/17 18:01:58;;;;;;;14.30;8.00;;;;;;;9.13;68.69;100202.52;230582;1209;635256;-66
2021/10/17 18:07:26;;;;;;;11.30;7.90;;;;;;;9.07;69.01;100204.98;229077;1196;142698;-66
2021/10/17 18:12:33;;;;;;;14.30;7.90;;;;;;;8.99;69.21;100205.17;227639;1195;141710;-66
2021/10/17 18:17:39;;;;;;;19.20;7.50;;;;;;;8.90;69.29;100205.54;228572;1195;139407;-66
2021/10/17 18:22:45;;;;;;;12.20;7.80;;;;;;;8.87;69.01;100202.34;228373;1196;140883;-67
2021/10/17 18:27:52;;;;;;;13.80;9.50;;;;;;;8.83;69.45;100198.81;227910;1196;140264;-67
2021/10/17 18:32:57;;;;;;;19.90;8.80;;;;;;;8.81;69.36;100200.00;228649;1196;138181;-67
2021/10/17 18:38:03;;;;;;;11.30;7.60;;;;;;;8.73;69.44;100197.98;227837;1196;140204;-68
2021/10/17 18:43:09;;;;;;;12.00;7.40;;;;;;;8.64;69.57;100198.14;226740;1195;139449;-66
2021/10/17 18:48:15;;;;;;;16.40;8.40;;;;;;;8.58;69.43;100200.86;226571;1196;139607;-66
2021/10/17 18:53:20;;;;;;;16.40;10.20;;;;;;;8.58;69.57;100204.13;227947;1196;229374;-67
2021/10/17 18:58:26;;;;;;;14.00;9.60;;;;;;;8.58;69.72;100204.73;227624;1196;140598;-66
2021/10/17 19:03:31;;;;;;;12.90;8.20;;;;;;;8.53;69.71;100203.68;228471;1196;139179;-66
2021/10/17 19:08:36;;;;;;;12.90;9.50;;;;;;;8.48;69.50;100208.77;229259;1196;139476;-66
2021/10/17 19:13:43;;;;;;;14.50;9.50;;;;;;;8.41;69.69;100210.58;229055;1196;138413;-65
2021/10/17 19:18:51;;;;;;;14.70;8.90;;;;;;;8.36;70.04;100211.56;228915;1196;139416;-67
2021/10/17 19:23:56;;;;;;;13.10;10.10;;;;;;;8.34;69.64;100211.11;229434;1196;139279;-66
2021/10/17 19:29:00;;;;;;;16.50;10.30;;;;;;;8.33;69.86;100210.98;228697;1196;139472;-67
2021/10/17 19:34:07;;;;;;;13.10;8.90;;;;;;;8.35;70.09;100219.29;228653;1196;139094;-68
2021/10/17 19:39:11;;;;;;;19.70;9.80;;;;;;;8.33;70.19;100222.63;229826;1196;138581;-68
2021/10/17 19:44:16;;;;;;;17.70;7.50;;;;;;;8.29;70.15;100228.05;229880;1196;138669;-68
2021/10/17 19:49:21;;;;;;;15.20;9.30;;;;;;;8.31;69.78;100235.77;229822;1196;139420;-68
2021/10/17 19:54:27;;;;;;;10.20;7.30;;;;;;;8.31;70.17;100244.24;228432;1196;138464;-66
2021/10/17 19:59:32;;;;;;;10.40;7.70;;;;;;;8.24;70.33;100245.33;226929;1190;140963;-66
2021/10/17 20:04:37;;;;;;;16.60;8.90;;;;;;;8.22;70.34;100248.20;227940;1196;139048;-65
2021/10/17 20:09:45;;;;;;;15.10;8.00;;;;;;;8.19;70.44;100255.71;228716;1196;139677;-66
2021/10/17 20:15:08;;;;;;;14.20;7.30;;;;;;;8.19;70.44;100251.45;227877;1196;138819;-66
2021/10/17 20:20:16;;;;;;;13.00;8.70;;;;;;;8.15;70.74;100249.23;227652;1196;139001;-66
2021/10/17 20:25:22;;;;;;;17.40;9.20;;;;;;;8.10;70.72;100252.31;227143;1196;139789;-66
2021/10/17 20:30:29;;;;;;;20.10;10.10;;;;;;;8.07;71.11;100251.05;226717;1196;142486;-66
2021/10/17 20:35:34;;;;;;;15.20;9.70;;;;;;;8.11;71.20;100251.99;227685;1196;140092;-66
2021/10/17 20:40:43;;;;;;;16.50;10.50;;;;;;;8.18;71.02;100255.63;227353;1197;208015;-63
2021/10/17 20:45:52;;;;;;;14.20;8.90;;;;;;;8.21;71.22;100253.99;227291;1196;140217;-66
2021/10/17 20:51:17;;;;;;;15.90;10.20;;;;;;;8.22;71.39;100248.48;228575;1196;138408;-65
2021/10/17 20:56:28;;;;;;;19.80;10.60;;;;;;;8.23;71.36;100247.17;228390;1194;139861;-66
2021/10/17 21:01:33;;;;;;;16.40;10.00;;;;;;;8.25;71.47;100248.66;227635;1196;140177;-66
2021/10/17 21:06:42;;;;;;;15.60;10.40;;;;;;;8.30;71.63;100250.92;227940;1197;139767;-67
2021/10/17 21:11:46;;;;;;;;;;;;;;;8.35;71.71;100252.23;228736;1196;139056;-68
2021/10/17 21:16:50;;;;;;;16.50;9.00;;;;;;;8.34;71.67;100257.25;229165;1196;125344;-66
2021/10/17 21:22:05;;;;;;;14.70;10.30;;;;;;;8.32;71.42;100256.62;228886;1195;138708;-67
2021/10/17 21:27:12;;;;;;;19.00;14.30;;;;;;;8.33;71.73;100256.52;229676;1195;139904;-66
2021/10/17 21:32:17;;;;;;;57.40;27.10;;;;;;;8.38;71.31;100250.75;229371;1195;145134;-65
2021/10/17 21:37:26;;;;;;;85.50;36.40;;;;;;;8.39;71.20;100255.04;230271;1195;139329;-65
2021/10/17 21:42:32;;;;;;;27.10;13.60;;;;;;;8.37;71.26;100255.49;230270;1195;139094;-67
2021/10/17 21:47:40;;;;;;;13.20;10.60;;;;;;;8.33;71.19;100263.14;229720;1195;139627;-67
2021/10/17 21:52:45;;;;;;;20.00;11.40;;;;;;;8.37;71.31;100263.10;230432;1195;140364;-70
2021/10/17 21:57:50;;;;;;;14.60;9.50;;;;;;;8.44;71.07;100258.55;230366;1195;139562;-69
2021/10/17 22:03:11;;;;;;;;;;;;;;;;;;;;;
2021/10/17 22:08:17;;;;;;;15.70;7.90;;;;;;;8.53;71.19;100253.10;229626;1195;140019;-67
2021/10/17 22:13:22;;;;;;;14.70;8.40;;;;;;;8.55;71.08;100248.23;228971;1194;139476;-68
2021/10/17 22:18:33;;;;;;;15.60;10.20;;;;;;;8.55;71.10;100247.75;229579;1195;140182;-66
2021/10/17 22:23:38;;;;;;;14.30;8.80;;;;;;;8.57;71.54;100246.02;229416;1195;138987;-68
2021/10/17 22:28:42;;;;;;;7.80;6.40;;;;;;;8.56;71.37;100248.91;228278;1195;138755;-67
2021/10/17 22:33:50;;;;;;;15.20;9.40;;;;;;;8.52;71.15;100257.92;227943;1195;139325;-66
2021/10/17 22:38:56;;;;;;;16.10;8.70;;;;;;;8.51;71.07;100262.02;228088;1195;140482;-66
2021/10/17 22:44:00;;;;;;;13.10;8.20;;;;;;;8.51;71.08;100262.05;227993;1193;139452;-67
2021/10/17 22:49:04;;;;;;;11.70;7.70;;;;;;;8.47;71.14;100265.00;228401;1192;138469;-67
2021/10/17 22:54:14;;;;;;;17.80;10.10;;;;;;;8.41;71.35;100275.35;228636;1193;140387;-67
2021/10/17 22:59:19;;;;;;;15.30;8.40;;;;;;;8.40;71.63;100278.02;228726;1193;139033;-68
2021/10/17 23:04:23;;;;;;;15.00;10.00;;;;;;;8.41;71.25;100277.68;229204;1193;140004;-70
2021/10/17 23:09:27;;;;;;;19.80;9.70;;;;;;;8.39;71.61;100280.75;229252;1193;138533;-68
2021/10/17 23:14:31;;;;;;;15.00;9.10;;;;;;;8.35;71.64;100286.23;229253;1193;138908;-68
2021/10/17 23:19:36;;;;;;;18.00;10.10;;;;;;;8.34;71.79;100289.21;228956;1192;139699;-68
2021/10/17 23:24:40;;;;;;;16.10;10.60;;;;;;;8.38;71.98;100291.70;228710;1193;141268;-67
2021/10/17 23:29:44;;;;;;;21.10;10.90;;;;;;;8.39;72.06;100291.58;228980;1193;140455;-68
2021/10/17 23:34:55;;;;;;;12.00;10.10;;;;;;;8.41;72.31;100300.03;230195;1193;140384;-68
2021/10/17 23:40:01;;;;;;;14.70;11.30;;;;;;;8.41;72.31;100297.50;230669;1193;140537;-70
2021/10/17 23:45:07;;;;;;;16.60;9.90;;;;;;;8.39;72.33;100295.26;229472;1193;140302;-67